createdAt,value
2022-11-08T00:06:48.532Z,100.00
2022-11-08T00:16:23.874Z,100.00
2022-11-08T00:25:56.542Z,100.00
2022-11-08T00:35:32.164Z,100.00
2022-11-08T00:45:06.252Z,100.00
2022-11-08T00:54:38.707Z,100.00
2022-11-08T01:04:12.387Z,100.00
2022-11-08T01:13:46.135Z,100.00
2022-11-08T01:23:22.118Z,100.00
2022-11-08T01:32:54.534Z,100.00
2022-11-08T01:42:29.797Z,100.00
2022-11-08T01:52:02.428Z,100.00
2022-11-08T02:01:38.616Z,99.53
2022-11-08T02:11:09.036Z,98.97
2022-11-08T02:20:42.473Z,99.72
2022-11-08T02:30:16.070Z,100.00
2022-11-08T02:39:51.335Z,100.00
2022-11-08T02:49:25.207Z,100.00
2022-11-08T02:58:56.867Z,100.00
2022-11-08T03:08:31.034Z,100.00
2022-11-08T03:18:05.625Z,100.00
2022-11-08T03:27:41.472Z,100.00
2022-11-08T03:37:15.148Z,100.00
2022-11-08T03:46:47.396Z,100.00
2022-11-08T03:56:21.436Z,100.00
2022-11-08T04:05:56.942Z,100.00
2022-11-08T04:15:29.760Z,100.00
2022-11-08T04:25:05.593Z,100.00
2022-11-08T04:34:39.555Z,100.00
2022-11-08T04:44:13.196Z,100.00
2022-11-08T04:53:44.994Z,98.44
2022-11-08T05:03:19.145Z,100.00
2022-11-08T05:12:52.358Z,100.00
2022-11-08T05:22:26.508Z,100.00
2022-11-08T05:32:00.373Z,100.00
2022-11-08T05:41:34.292Z,100.00
2022-11-08T05:51:08.621Z,100.00
2022-11-08T06:00:42.277Z,100.00
2022-11-08T06:10:17.637Z,100.00
2022-11-08T06:19:49.163Z,100.00
2022-11-08T06:29:26.374Z,100.00
2022-11-08T06:38:56.990Z,100.00
2022-11-08T06:48:35.700Z,100.00
2022-11-08T06:58:05.117Z,100.00
2022-11-08T07:07:39.369Z,100.00
2022-11-08T07:17:14.964Z,100.00
2022-11-08T07:26:47.475Z,100.00
2022-11-08T07:36:20.218Z,100.00
2022-11-08T07:45:54.518Z,100.00
2022-11-08T07:55:28.816Z,100.00
2022-11-08T08:05:02.700Z,100.00
2022-11-08T08:14:36.585Z,100.00
2022-11-08T08:24:12.068Z,98.31
2022-11-08T08:33:43.646Z,100.00
2022-11-08T08:43:19.422Z,100.00
2022-11-08T08:52:51.469Z,100.00
2022-11-08T09:02:25.645Z,100.00
2022-11-08T09:12:00.546Z,100.00
2022-11-08T09:21:35.361Z,100.00
2022-11-08T09:31:11.733Z,100.00
2022-11-08T09:40:44.809Z,97.63
2022-11-08T09:50:20.984Z,95.96
2022-11-08T09:59:53.835Z,94.99
2022-11-08T10:00:57.952Z,95.00
2022-11-08T10:02:00.363Z,94.47
2022-11-08T10:03:04.643Z,94.33
2022-11-08T10:04:08.040Z,94.39
2022-11-08T10:13:41.766Z,91.89
2022-11-08T10:14:50.833Z,90.98
2022-11-08T10:15:46.698Z,91.11
2022-11-08T10:16:49.183Z,90.91
2022-11-08T10:17:53.283Z,90.93
2022-11-08T10:18:57.252Z,89.82
2022-11-08T10:20:03.806Z,89.35
2022-11-08T10:29:33.133Z,87.51
2022-11-08T10:30:35.628Z,88.33
2022-11-08T10:31:38.091Z,87.78
2022-11-08T10:32:42.266Z,86.71
2022-11-08T10:33:44.599Z,86.38
2022-11-08T10:34:48.095Z,87.05
2022-11-08T10:35:52.152Z,85.71
2022-11-08T10:36:56.049Z,85.71
2022-11-08T10:37:58.471Z,85.80
2022-11-08T10:39:01.003Z,84.63
2022-11-08T10:40:05.058Z,84.10
2022-11-08T10:41:08.356Z,84.48
2022-11-08T10:42:10.769Z,83.70
2022-11-08T10:43:14.826Z,83.24
2022-11-08T10:44:17.198Z,83.64
2022-11-08T10:45:19.734Z,84.67
2022-11-08T10:54:52.726Z,82.00
2022-11-08T10:55:56.828Z,81.98
2022-11-08T10:56:59.135Z,82.07
2022-11-08T10:58:01.620Z,82.42
2022-11-08T10:59:04.085Z,82.20
2022-11-08T11:00:06.610Z,82.20
2022-11-08T11:01:10.682Z,81.38
2022-11-08T11:02:13.164Z,81.40
2022-11-08T11:03:15.561Z,82.08
2022-11-08T11:04:19.030Z,81.56
2022-11-08T11:05:21.420Z,80.75
2022-11-08T11:06:23.869Z,79.86
2022-11-08T11:07:26.304Z,80.18
2022-11-08T11:08:28.802Z,80.73
2022-11-08T11:09:31.285Z,79.97
2022-11-08T11:10:33.805Z,80.39
2022-11-08T11:11:36.364Z,79.95
2022-11-08T11:12:41.503Z,79.58
2022-11-08T11:13:45.319Z,80.57
2022-11-08T11:14:47.665Z,79.86
2022-11-08T11:15:50.162Z,78.78
2022-11-08T11:16:52.621Z,79.54
2022-11-08T11:17:55.114Z,80.42
2022-11-08T11:18:57.550Z,80.34
2022-11-08T11:20:00.046Z,80.75
2022-11-08T11:21:04.137Z,81.05
2022-11-08T11:22:06.502Z,81.78
2022-11-08T11:23:10.556Z,80.13
2022-11-08T11:24:15.361Z,80.21
2022-11-08T11:25:15.547Z,80.28
2022-11-08T11:26:18.063Z,79.91
2022-11-08T11:27:22.093Z,80.39
2022-11-08T11:28:24.448Z,80.38
2022-11-08T11:29:26.908Z,80.58
2022-11-08T11:30:29.472Z,80.05
2022-11-08T11:31:31.974Z,80.36
2022-11-08T11:32:34.389Z,80.09
2022-11-08T11:33:36.876Z,80.36
2022-11-08T11:34:39.391Z,79.95
2022-11-08T11:35:41.889Z,80.77
2022-11-08T11:36:44.380Z,80.97
2022-11-08T11:37:46.915Z,79.44
2022-11-08T11:38:49.399Z,79.61
2022-11-08T11:39:51.858Z,80.79
2022-11-08T11:40:54.417Z,80.72
2022-11-08T11:41:56.874Z,80.03
2022-11-08T11:43:01.006Z,80.17
2022-11-08T11:44:05.962Z,79.64
2022-11-08T11:45:08.238Z,81.15
2022-11-08T11:46:10.723Z,80.20
2022-11-08T11:47:13.234Z,80.75
2022-11-08T11:48:16.097Z,80.08
2022-11-08T11:49:18.309Z,80.73
2022-11-08T11:50:20.808Z,80.54
2022-11-08T11:51:24.945Z,79.96
2022-11-08T11:52:27.354Z,79.79
2022-11-08T11:53:31.283Z,80.68
2022-11-08T11:54:33.740Z,81.25
2022-11-08T11:55:36.198Z,81.98
2022-11-08T11:56:38.633Z,81.42
2022-11-08T11:57:42.735Z,80.45
2022-11-08T11:58:46.771Z,79.50
2022-11-08T11:59:50.645Z,79.48
2022-11-08T12:00:54.610Z,80.58
2022-11-08T12:01:58.625Z,81.46
2022-11-08T12:03:01.002Z,80.41
2022-11-08T12:04:07.148Z,79.77
2022-11-08T12:05:09.415Z,80.13
2022-11-08T12:06:11.973Z,81.31
2022-11-08T12:07:16.038Z,80.52
2022-11-08T12:08:18.845Z,79.88
2022-11-08T12:09:26.580Z,79.32
2022-11-08T12:10:30.308Z,79.68
2022-11-08T12:11:34.175Z,79.90
2022-11-08T12:12:36.553Z,80.11
2022-11-08T12:13:39.038Z,79.55
2022-11-08T12:14:41.446Z,79.68
2022-11-08T12:15:44.045Z,79.66
2022-11-08T12:16:46.515Z,79.11
2022-11-08T12:17:50.540Z,78.62
2022-11-08T12:18:52.989Z,78.93
2022-11-08T12:19:55.336Z,78.54
2022-11-08T12:20:57.983Z,79.17
2022-11-08T12:22:02.037Z,79.60
2022-11-08T12:23:04.348Z,80.12
2022-11-08T12:24:08.475Z,79.52
2022-11-08T12:25:10.833Z,79.02
2022-11-08T12:26:14.886Z,79.26
2022-11-08T12:27:17.249Z,78.09
2022-11-08T12:28:20.016Z,79.70
2022-11-08T12:29:22.178Z,79.47
2022-11-08T12:30:24.689Z,78.61
2022-11-08T12:31:28.810Z,79.83
2022-11-08T12:32:31.114Z,79.16
2022-11-08T12:33:33.634Z,79.35
2022-11-08T12:34:39.910Z,78.38
2022-11-08T12:35:42.086Z,78.97
2022-11-08T12:36:46.134Z,78.56
2022-11-08T12:37:48.394Z,79.29
2022-11-08T12:38:50.922Z,79.81
2022-11-08T12:39:54.917Z,79.23
2022-11-08T12:40:57.360Z,79.33
2022-11-08T12:41:59.868Z,79.24
2022-11-08T12:43:02.289Z,78.19
2022-11-08T12:44:04.793Z,78.32
2022-11-08T12:45:07.259Z,78.19
2022-11-08T12:46:09.741Z,78.49
2022-11-08T12:47:13.865Z,77.95
2022-11-08T12:48:18.120Z,78.86
2022-11-08T12:49:20.323Z,78.14
2022-11-08T12:50:22.720Z,77.85
2022-11-08T12:51:25.229Z,78.17
2022-11-08T12:52:27.673Z,77.17
2022-11-08T12:53:31.775Z,77.31
2022-11-08T12:54:34.133Z,77.92
2022-11-08T12:55:38.253Z,77.32
2022-11-08T12:56:42.230Z,75.80
2022-11-08T12:57:44.598Z,77.27
2022-11-08T12:58:47.085Z,77.37
2022-11-08T12:59:49.577Z,76.42
2022-11-08T13:00:52.113Z,75.98
2022-11-08T13:01:56.104Z,75.90
2022-11-08T13:02:58.649Z,76.65
2022-11-08T13:04:05.978Z,76.44
2022-11-08T13:05:06.643Z,76.64
2022-11-08T13:06:09.084Z,77.43
2022-11-08T13:07:13.287Z,77.62
2022-11-08T13:08:15.907Z,76.28
2022-11-08T13:09:19.747Z,76.09
2022-11-08T13:10:22.107Z,77.40
2022-11-08T13:11:25.566Z,75.96
2022-11-08T13:12:28.029Z,76.75
2022-11-08T13:13:30.550Z,77.43
2022-11-08T13:14:36.047Z,77.16
2022-11-08T13:15:35.478Z,76.63
2022-11-08T13:16:37.986Z,77.11
2022-11-08T13:17:40.348Z,77.14
2022-11-08T13:18:42.854Z,76.42
2022-11-08T13:19:45.380Z,76.91
2022-11-08T13:20:47.897Z,76.25
2022-11-08T13:21:50.427Z,76.78
2022-11-08T13:22:52.934Z,76.65
2022-11-08T13:23:55.413Z,75.99
2022-11-08T13:24:59.489Z,76.00
2022-11-08T13:26:01.892Z,76.10
2022-11-08T13:27:04.358Z,75.93
2022-11-08T13:28:06.880Z,76.28
2022-11-08T13:29:13.120Z,75.00
2022-11-08T13:30:15.410Z,74.96
2022-11-08T13:31:17.855Z,75.23
2022-11-08T13:32:20.396Z,74.83
2022-11-08T13:33:22.863Z,75.14
2022-11-08T13:34:25.333Z,74.95
2022-11-08T13:35:27.839Z,75.24
2022-11-08T13:36:31.963Z,74.79
2022-11-08T13:37:34.237Z,74.10
2022-11-08T13:38:36.770Z,74.15
2022-11-08T13:39:40.303Z,75.05
2022-11-08T13:40:42.735Z,75.57
2022-11-08T13:41:45.340Z,75.70
2022-11-08T13:42:47.728Z,74.47
2022-11-08T13:43:50.195Z,75.39
2022-11-08T13:44:52.690Z,75.00
2022-11-08T13:45:56.750Z,74.86
2022-11-08T13:46:59.061Z,75.12
2022-11-08T13:48:03.143Z,76.02
2022-11-08T13:49:07.127Z,75.36
2022-11-08T13:50:09.482Z,75.13
2022-11-08T13:51:13.501Z,74.95
2022-11-08T13:52:16.911Z,74.92
2022-11-08T13:53:19.417Z,75.78
2022-11-08T13:54:23.506Z,74.57
2022-11-08T13:55:25.827Z,75.54
2022-11-08T13:56:29.931Z,75.42
2022-11-08T13:57:32.341Z,74.70
2022-11-08T13:58:34.825Z,75.58
2022-11-08T13:59:37.273Z,75.25
2022-11-08T14:00:39.759Z,75.93
2022-11-08T14:01:42.303Z,75.20
2022-11-08T14:02:44.674Z,74.54
2022-11-08T14:03:47.273Z,75.32
2022-11-08T14:04:51.327Z,75.27
2022-11-08T14:05:53.662Z,75.14
2022-11-08T14:06:56.253Z,74.75
2022-11-08T14:08:02.444Z,75.09
2022-11-08T14:09:06.273Z,75.08
2022-11-08T14:10:08.643Z,75.73
2022-11-08T14:11:11.034Z,75.66
2022-11-08T14:12:13.501Z,75.44
2022-11-08T14:13:16.292Z,75.02
2022-11-08T14:14:18.517Z,75.35
2022-11-08T14:15:20.991Z,76.21
2022-11-08T14:16:25.067Z,75.07
2022-11-08T14:17:27.458Z,75.37
2022-11-08T14:18:31.606Z,75.59
2022-11-08T14:19:36.940Z,75.32
2022-11-08T14:20:39.185Z,75.54
2022-11-08T14:21:41.708Z,75.99
2022-11-08T14:22:49.798Z,76.24
2022-11-08T14:23:48.171Z,76.38
2022-11-08T14:24:53.326Z,76.31
2022-11-08T14:25:55.550Z,75.42
2022-11-08T14:26:58.163Z,75.71
2022-11-08T14:28:00.610Z,75.86
2022-11-08T14:29:05.642Z,76.14
2022-11-08T14:30:09.501Z,75.92
2022-11-08T14:31:12.044Z,75.62
2022-11-08T14:32:14.574Z,76.37
2022-11-08T14:33:18.868Z,76.34
2022-11-08T14:34:20.867Z,76.22
2022-11-08T14:35:23.390Z,76.22
2022-11-08T14:36:25.810Z,76.59
2022-11-08T14:37:28.325Z,76.71
2022-11-08T14:38:30.773Z,76.39
2022-11-08T14:39:33.280Z,76.86
2022-11-08T14:40:35.709Z,76.85
2022-11-08T14:41:38.267Z,76.64
2022-11-08T14:42:42.316Z,76.88
2022-11-08T14:43:44.819Z,77.06
2022-11-08T14:44:47.280Z,77.05
2022-11-08T14:45:49.738Z,77.87
2022-11-08T14:46:52.250Z,77.42
2022-11-08T14:47:54.697Z,77.71
2022-11-08T14:48:59.812Z,78.26
2022-11-08T14:50:02.023Z,78.13
2022-11-08T14:51:06.170Z,77.78
2022-11-08T14:52:10.119Z,78.25
2022-11-08T14:53:12.405Z,78.38
2022-11-08T14:54:14.832Z,77.81
2022-11-08T14:55:18.925Z,78.07
2022-11-08T14:56:21.274Z,78.16
2022-11-08T14:57:23.725Z,77.94
2022-11-08T14:58:27.785Z,78.37
2022-11-08T14:59:30.147Z,78.33
2022-11-08T15:00:32.626Z,77.88
2022-11-08T15:01:35.171Z,78.10
2022-11-08T15:02:37.546Z,77.87
2022-11-08T15:03:39.976Z,77.85
2022-11-08T15:04:42.431Z,78.07
2022-11-08T15:05:44.961Z,78.42
2022-11-08T15:06:49.192Z,78.60
2022-11-08T15:07:51.488Z,78.29
2022-11-08T15:08:53.984Z,78.36
2022-11-08T15:09:56.448Z,78.00
2022-11-08T15:10:58.935Z,78.39
2022-11-08T15:12:01.485Z,78.58
2022-11-08T15:13:05.538Z,78.75
2022-11-08T15:14:09.583Z,78.34
2022-11-08T15:15:11.901Z,78.38
2022-11-08T15:16:14.362Z,78.71
2022-11-08T15:17:16.825Z,78.66
2022-11-08T15:18:19.314Z,78.68
2022-11-08T15:19:21.739Z,78.48
2022-11-08T15:20:25.872Z,78.58
2022-11-08T15:21:28.221Z,78.72
2022-11-08T15:22:30.717Z,78.25
2022-11-08T15:23:33.191Z,78.33
2022-11-08T15:24:35.646Z,78.17
2022-11-08T15:34:09.729Z,79.67
2022-11-08T15:35:12.125Z,79.44
2022-11-08T15:36:14.602Z,79.61
2022-11-08T15:37:17.056Z,79.16
2022-11-08T15:38:20.005Z,79.17
2022-11-08T15:47:54.133Z,79.70
2022-11-08T15:57:26.708Z,80.23
2022-11-08T16:07:01.235Z,80.92
2022-11-08T16:16:37.209Z,81.38
2022-11-08T16:26:09.726Z,82.14
2022-11-08T16:35:43.816Z,82.09
2022-11-08T16:45:21.556Z,82.15
2022-11-08T16:54:52.457Z,80.84
2022-11-08T17:04:26.949Z,81.29
2022-11-08T17:14:01.491Z,81.31
2022-11-08T17:23:37.290Z,81.41
2022-11-08T17:33:10.082Z,81.69
2022-11-08T17:42:43.994Z,81.76
2022-11-08T17:52:17.943Z,82.63
2022-11-08T18:01:55.140Z,82.84
2022-11-08T18:11:26.626Z,83.85
2022-11-08T18:21:01.129Z,85.05
2022-11-08T18:30:34.894Z,86.55
2022-11-08T18:40:09.408Z,86.92
2022-11-08T18:49:42.109Z,87.06
2022-11-08T18:59:16.454Z,84.96
2022-11-08T19:08:50.963Z,84.91
2022-11-08T19:18:27.288Z,83.99
2022-11-08T19:28:00.365Z,82.92
2022-11-08T19:37:34.863Z,80.49
2022-11-08T19:47:12.629Z,78.40
2022-11-08T19:57:47.144Z,77.26
2022-11-08T20:07:21.012Z,77.43
2022-11-08T20:16:55.096Z,79.15
2022-11-08T20:26:29.458Z,79.44
2022-11-08T20:36:04.097Z,81.35
2022-11-08T20:37:06.870Z,80.95
2022-11-08T20:46:41.675Z,80.66
2022-11-08T20:56:14.055Z,81.37
2022-11-08T21:05:48.168Z,81.42
2022-11-08T21:15:26.864Z,82.21
2022-11-08T21:24:57.124Z,82.69
2022-11-08T21:34:32.656Z,85.67
2022-11-08T21:44:05.747Z,87.94
2022-11-08T21:53:48.119Z,88.58
2022-11-08T22:03:13.550Z,90.07
2022-11-08T22:12:47.397Z,89.54
2022-11-08T22:22:23.469Z,89.76
2022-11-08T22:31:55.861Z,90.59
2022-11-08T22:41:30.182Z,92.16
2022-11-08T22:51:04.686Z,92.15
2022-11-08T23:00:38.976Z,90.45
2022-11-08T23:10:13.136Z,89.97
2022-11-08T23:19:49.025Z,89.89
2022-11-08T23:29:21.490Z,92.05
2022-11-08T23:38:55.854Z,95.22
2022-11-08T23:48:30.070Z,97.43
2022-11-08T23:58:04.885Z,100.00
